Chilo, Ohio
Current Conditions -  °F | °C
As of 7:53 AM on Saturday 25 Oct 2014 (Local Time) from KLUK Reporting Station
Broken Clouds Broken Clouds  
Wind Chill: 42°   Ceiling: 6500
Heat Index: 42°   Visibility: 7mi
Dew Point: 42°   Wind: 0mph
Humidity: 100%   Direction: NA
Pressure: 30.01"   Gusts: NA
Location:  38.8°N, 84.14°W
Report Text: KLUK 251153Z 00000KT 7SM R21L/5000VP6000FT BKN065 06/06 A3001 RMK AO2 SLP164 T00560056 10061 20044 58006
Loading
Personal Weather Stations






























Interactive Weather Map
Tropical Storm Tracking
New forecast layout! Learn more

10-Day Weather Forecast

Advertisements
Track Severe Weather on mobile